Time;durP1;ratioP1;P1;durP2;ratioP2;P2;SDS_P1;SDS_P2;PMS_P1;PMS_P2;Temp;Humidity;BMP_temperature;BMP_pressure;BME280_temperature;BME280_humidity;BME280_pressure;Samples;Min_cycle;Max_cycle;Signal;HPM_P1;HPM_P2
2020/12/31 00:02:12;;;;;;;11.65;5.97;;;2.60;99.90;;;;;;5012946;28;20117;-57
2020/12/31 00:04:39;;;;;;;11.18;6.25;;;2.60;99.90;;;;;;5013001;28;20070;-56
2020/12/31 00:07:06;;;;;;;12.00;6.07;;;2.70;99.90;;;;;;5012672;28;20036;-57
2020/12/31 00:09:33;;;;;;;12.82;6.13;;;2.70;99.90;;;;;;5012369;28;20034;-57
2020/12/31 00:11:59;;;;;;;13.30;6.13;;;2.80;99.90;;;;;;5012519;28;20117;-58
2020/12/31 00:14:25;;;;;;;10.52;5.88;;;2.70;99.90;;;;;;5012397;28;20129;-56
2020/12/31 00:16:51;;;;;;;12.55;6.18;;;2.70;99.90;;;;;;5012607;28;20419;-57
2020/12/31 00:19:17;;;;;;;12.38;5.97;;;2.70;99.90;;;;;;5012250;28;20065;-57
2020/12/31 00:21:43;;;;;;;13.90;6.18;;;2.60;99.90;;;;;;5012759;28;20052;-56
2020/12/31 00:24:09;;;;;;;13.35;6.68;;;2.60;99.90;;;;;;5012710;28;20033;-53
2020/12/31 00:26:34;;;;;;;15.15;6.90;;;2.60;99.90;;;;;;5012242;28;20080;-57
2020/12/31 00:29:00;;;;;;;11.77;5.90;;;2.70;99.90;;;;;;5012440;28;20030;-58
2020/12/31 00:31:26;;;;;;;12.60;6.88;;;2.70;99.90;;;;;;5011050;28;20031;-56
2020/12/31 00:33:52;;;;;;;14.90;7.22;;;2.70;99.90;;;;;;5012600;28;20048;-55
2020/12/31 00:36:18;;;;;;;13.18;6.82;;;2.60;99.90;;;;;;5012136;28;20484;-57
2020/12/31 00:38:44;;;;;;;15.07;7.72;;;2.70;99.90;;;;;;5012437;28;20033;-57
2020/12/31 00:41:10;;;;;;;16.80;7.70;;;2.70;99.90;;;;;;5012496;28;20076;-58
2020/12/31 00:43:36;;;;;;;14.80;7.47;;;2.70;99.90;;;;;;5012144;28;20060;-57
2020/12/31 00:46:02;;;;;;;17.23;7.97;;;2.70;99.90;;;;;;5012394;28;20080;-57
2020/12/31 00:48:28;;;;;;;16.15;7.30;;;2.70;99.90;;;;;;5012264;28;20026;-57
2020/12/31 00:50:54;;;;;;;16.30;7.40;;;2.80;99.90;;;;;;5016552;28;20049;-57
2020/12/31 00:53:20;;;;;;;13.88;6.97;;;2.90;99.90;;;;;;5016394;28;20058;-57
2020/12/31 00:55:46;;;;;;;12.55;6.00;;;3.00;99.90;;;;;;5016543;28;20053;-57
2020/12/31 00:58:12;;;;;;;14.75;6.00;;;3.00;99.90;;;;;;5031668;28;20026;-57
2020/12/31 01:00:38;;;;;;;11.68;6.75;;;3.00;99.90;;;;;;5015812;28;20044;-54
2020/12/31 01:03:07;;;;;;;13.05;5.80;;;3.00;99.90;;;;;;5015089;28;20069;-57
2020/12/31 01:05:33;;;;;;;13.35;7.43;;;3.10;99.90;;;;;;5016139;28;20113;-56
2020/12/31 01:07:59;;;;;;;16.75;7.20;;;3.00;99.90;;;;;;5015964;28;20049;-57
2020/12/31 01:10:25;;;;;;;15.18;7.60;;;3.10;99.90;;;;;;5014530;28;20038;-57
2020/12/31 01:12:51;;;;;;;14.50;7.97;;;3.10;99.90;;;;;;5016222;28;20122;-57
2020/12/31 01:15:17;;;;;;;16.08;7.85;;;3.10;99.90;;;;;;5016161;28;20120;-55
2020/12/31 01:17:43;;;;;;;16.80;8.45;;;3.00;99.90;;;;;;5015987;28;20026;-57
2020/12/31 01:20:09;;;;;;;14.23;7.40;;;3.10;99.90;;;;;;5015527;28;20045;-58
2020/12/31 01:22:36;;;;;;;15.10;7.30;;;3.00;99.90;;;;;;5015746;28;20037;-55
2020/12/31 01:25:03;;;;;;;12.38;6.45;;;2.90;99.90;;;;;;5015977;28;20041;-56
2020/12/31 01:27:30;;;;;;;14.32;8.07;;;2.90;99.90;;;;;;5015515;28;20069;-56
2020/12/31 01:29:55;;;;;;;15.48;7.88;;;2.80;99.90;;;;;;5015813;28;20107;-57
2020/12/31 01:32:25;;;;;;;17.85;7.18;;;2.90;99.90;;;;;;5015368;28;20056;-57
2020/12/31 01:34:52;;;;;;;11.38;6.88;;;2.90;99.90;;;;;;5015615;28;20026;-56
2020/12/31 01:37:20;;;;;;;16.33;6.65;;;2.80;99.90;;;;;;5015321;28;20019;-56
2020/12/31 01:39:47;;;;;;;18.65;7.30;;;2.80;99.90;;;;;;5015534;28;20040;-58
2020/12/31 01:42:13;;;;;;;15.57;8.43;;;2.90;99.90;;;;;;5015462;28;20084;-58
2020/12/31 01:44:40;;;;;;;11.73;6.82;;;3.00;99.90;;;;;;5015452;28;20042;-57
2020/12/31 01:47:06;;;;;;;13.70;7.28;;;2.90;99.90;;;;;;5015472;28;20061;-57
2020/12/31 01:49:37;;;;;;;13.32;6.38;;;3.00;99.90;;;;;;5013837;28;20080;-57
2020/12/31 01:52:03;;;;;;;15.73;7.27;;;3.00;99.90;;;;;;5015121;28;20044;-58
2020/12/31 01:54:29;;;;;;;13.68;6.50;;;3.00;99.90;;;;;;5015145;28;20113;-57
2020/12/31 01:56:58;;;;;;;14.52;7.00;;;3.10;99.90;;;;;;5015225;28;20045;-56
2020/12/31 01:59:25;;;;;;;13.40;6.63;;;3.00;99.90;;;;;;5015083;28;20080;-57
2020/12/31 02:01:53;;;;;;;12.50;6.20;;;3.00;99.90;;;;;;5013897;28;20050;-57
2020/12/31 02:04:19;;;;;;;16.52;6.93;;;3.00;99.90;;;;;;5014968;28;20034;-57
2020/12/31 02:06:46;;;;;;;12.90;6.90;;;3.00;99.90;;;;;;5014748;28;20113;-57
2020/12/31 02:09:13;;;;;;;13.68;6.38;;;3.00;99.90;;;;;;5013923;28;20054;-58
2020/12/31 02:11:39;;;;;;;13.05;7.53;;;2.90;99.90;;;;;;5014857;28;20084;-57
2020/12/31 02:14:05;;;;;;;12.25;6.72;;;3.00;99.90;;;;;;5014972;28;20108;-55
2020/12/31 02:16:37;;;;;;;15.65;7.65;;;3.00;99.90;;;;;;5014856;28;20064;-57
2020/12/31 02:19:14;;;;;;;12.13;6.47;;;3.00;99.90;;;;;;5014397;28;20049;-58
2020/12/31 02:21:48;;;;;;;14.23;7.10;;;3.00;99.90;;;;;;5014502;28;20030;-57
2020/12/31 02:24:15;;;;;;;15.02;7.50;;;2.90;99.90;;;;;;5014839;28;20038;-56
2020/12/31 02:26:43;;;;;;;15.23;7.28;;;2.90;99.90;;;;;;5014421;28;20029;-57
2020/12/31 02:29:11;;;;;;;13.73;7.38;;;3.00;99.90;;;;;;5014687;28;20061;-57
2020/12/31 02:31:39;;;;;;;13.48;7.43;;;3.00;99.90;;;;;;5014501;28;20083;-56
2020/12/31 02:34:06;;;;;;;11.00;6.70;;;3.00;99.90;;;;;;5014706;28;20029;-58
2020/12/31 02:36:36;;;;;;;12.85;6.63;;;2.90;99.90;;;;;;5014139;28;20124;-58
2020/12/31 02:39:12;;;;;;;11.85;6.18;;;2.80;99.90;;;;;;5014508;28;20069;-56
2020/12/31 02:41:39;;;;;;;14.82;7.60;;;2.80;99.90;;;;;;5013173;28;20037;-56
2020/12/31 02:44:06;;;;;;;13.57;7.15;;;2.80;99.90;;;;;;5014355;28;20061;-55
2020/12/31 02:46:32;;;;;;;15.50;6.80;;;2.80;99.90;;;;;;5014072;28;20026;-54
2020/12/31 02:48:59;;;;;;;13.63;7.47;;;2.70;99.90;;;;;;5014331;28;20030;-54
2020/12/31 02:51:26;;;;;;;14.88;7.93;;;2.80;99.90;;;;;;5014180;28;20080;-55
2020/12/31 02:53:52;;;;;;;15.75;7.80;;;2.80;99.90;;;;;;5014269;28;20022;-57
2020/12/31 02:56:21;;;;;;;16.17;7.75;;;2.80;99.90;;;;;;5014238;28;20060;-56
2020/12/31 02:58:48;;;;;;;14.35;7.93;;;2.70;99.90;;;;;;5014051;28;20168;-57
2020/12/31 03:01:15;;;;;;;16.35;7.18;;;2.70;99.90;;;;;;5013889;28;20034;-56
2020/12/31 03:03:41;;;;;;;12.82;7.05;;;2.70;99.90;;;;;;5013954;28;20032;-57
2020/12/31 03:06:07;;;;;;;14.75;6.07;;;2.70;99.90;;;;;;5014089;28;20125;-56
2020/12/31 03:08:35;;;;;;;15.60;7.93;;;2.70;99.90;;;;;;5012468;28;20044;-57
2020/12/31 03:11:04;;;;;;;14.38;7.80;;;2.70;99.90;;;;;;5013670;28;20096;-56
2020/12/31 03:13:30;;;;;;;13.75;7.15;;;2.70;99.90;;;;;;5013320;28;20034;-57
2020/12/31 03:15:57;;;;;;;11.50;6.95;;;2.60;99.90;;;;;;5013639;28;20088;-54
2020/12/31 03:18:23;;;;;;;12.98;6.10;;;2.50;99.90;;;;;;5013793;28;20036;-52
2020/12/31 03:20:50;;;;;;;13.82;6.95;;;2.50;99.90;;;;;;5013215;28;20049;-56
2020/12/31 03:23:17;;;;;;;14.50;6.80;;;2.50;99.90;;;;;;5012541;28;20022;-52
2020/12/31 03:25:44;;;;;;;15.88;7.18;;;2.30;99.90;;;;;;5013334;28;20053;-56
2020/12/31 03:28:10;;;;;;;13.48;6.90;;;2.30;99.90;;;;;;5013290;28;20084;-53
2020/12/31 03:30:37;;;;;;;14.68;7.18;;;2.30;99.90;;;;;;5013380;28;20022;-54
2020/12/31 03:33:04;;;;;;;10.93;6.40;;;2.30;99.90;;;;;;5013629;28;20030;-58
2020/12/31 03:35:30;;;;;;;11.75;6.22;;;2.30;99.90;;;;;;5013230;28;20038;-54
2020/12/31 03:37:56;;;;;;;10.60;6.15;;;2.20;99.90;;;;;;5013540;28;20106;-56
2020/12/31 03:40:22;;;;;;;12.63;6.90;;;2.20;99.90;;;;;;5013441;28;20379;-56
2020/12/31 03:42:48;;;;;;;9.65;5.95;;;2.10;99.90;;;;;;5013182;28;20037;-56
2020/12/31 03:45:15;;;;;;;11.52;5.75;;;2.10;99.90;;;;;;5013359;28;20030;-55
2020/12/31 03:47:41;;;;;;;10.80;6.18;;;2.00;99.90;;;;;;5013089;28;20037;-56
2020/12/31 03:50:07;;;;;;;11.65;6.18;;;2.00;99.90;;;;;;5013269;28;20034;-56
2020/12/31 03:52:33;;;;;;;11.75;6.07;;;2.00;99.90;;;;;;5013063;28;20173;-56
2020/12/31 03:54:59;;;;;;;10.93;5.57;;;2.00;99.90;;;;;;5012016;28;20044;-56
2020/12/31 03:57:25;;;;;;;9.75;5.38;;;2.10;99.90;;;;;;5012893;28;20033;-57
2020/12/31 03:59:51;;;;;;;10.23;5.53;;;2.20;99.90;;;;;;5012879;28;20041;-56
2020/12/31 04:02:17;;;;;;;13.35;4.70;;;2.20;99.90;;;;;;5012929;28;20113;-56
2020/12/31 04:04:44;;;;;;;9.55;5.15;;;2.30;99.90;;;;;;5012626;28;20053;-56
2020/12/31 04:07:10;;;;;;;11.07;4.55;;;2.30;99.90;;;;;;5012918;28;20025;-56
2020/12/31 04:09:36;;;;;;;10.77;5.57;;;2.30;99.90;;;;;;5012601;28;20067;-56
2020/12/31 04:12:02;;;;;;;9.02;4.40;;;2.30;99.90;;;;;;5012595;28;20030;-56
2020/12/31 04:14:27;;;;;;;6.90;3.75;;;2.30;99.90;;;;;;5027893;28;20034;-56
2020/12/31 04:16:53;;;;;;;10.32;4.90;;;2.30;99.90;;;;;;5011488;28;20022;-56
2020/12/31 04:19:19;;;;;;;9.07;4.93;;;2.20;99.90;;;;;;5012458;28;20068;-56
2020/12/31 04:21:45;;;;;;;8.85;3.85;;;2.20;99.90;;;;;;5012658;28;20025;-56
2020/12/31 04:24:11;;;;;;;7.97;4.15;;;2.20;99.90;;;;;;5011781;28;20104;-56
2020/12/31 04:26:37;;;;;;;6.93;3.65;;;2.20;99.90;;;;;;5012233;28;20029;-56
2020/12/31 04:29:03;;;;;;;7.85;3.55;;;2.20;99.90;;;;;;5012724;28;20034;-56
2020/12/31 04:31:29;;;;;;;7.85;3.28;;;2.20;99.90;;;;;;5012322;28;20128;-56
2020/12/31 04:33:55;;;;;;;8.45;3.80;;;2.20;99.90;;;;;;5012239;28;20061;-57
2020/12/31 04:36:21;;;;;;;27.27;10.95;;;2.10;99.90;;;;;;5012558;28;20052;-57
2020/12/31 04:38:46;;;;;;;9.00;5.15;;;2.10;99.90;;;;;;5012407;28;20096;-56
2020/12/31 04:41:13;;;;;;;8.27;3.58;;;2.00;99.90;;;;;;5012546;28;20042;-55
2020/12/31 04:43:39;;;;;;;7.00;3.45;;;2.00;99.90;;;;;;5012224;28;20037;-56
2020/12/31 04:46:09;;;;;;;8.05;3.22;;;1.90;99.90;;;;;;5012231;28;20050;-54
2020/12/31 04:48:55;;;;;;;7.18;3.35;;;2.10;99.90;;;;;;5012660;28;20184;-54
2020/12/31 04:51:25;;;;;;;9.30;3.50;;;2.10;99.90;;;;;;5011362;28;20113;-57
2020/12/31 04:53:54;;;;;;;6.22;3.10;;;2.10;99.90;;;;;;5012406;28;20038;-56
2020/12/31 04:56:24;;;;;;;7.25;3.75;;;2.00;99.90;;;;;;5011289;28;20172;-54
2020/12/31 04:58:51;;;;;;;7.57;4.20;;;1.90;99.90;;;;;;5011212;28;20045;-57
2020/12/31 05:01:17;;;;;;;8.45;3.35;;;1.90;99.90;;;;;;5011134;28;20281;-57
2020/12/31 05:03:43;;;;;;;7.45;3.25;;;1.90;99.90;;;;;;5011871;28;20030;-58
2020/12/31 05:06:15;;;;;;;7.38;3.55;;;1.90;99.90;;;;;;5012319;28;20062;-57
2020/12/31 05:08:44;;;;;;;7.22;3.67;;;2.00;99.90;;;;;;5010718;28;20038;-57
2020/12/31 05:11:11;;;;;;;7.32;4.03;;;2.10;99.90;;;;;;5011047;28;20041;-56
2020/12/31 05:13:51;;;;;;;9.40;3.55;;;2.10;99.90;;;;;;5012110;28;20030;-55
2020/12/31 05:16:29;;;;;;;6.88;3.40;;;2.00;99.90;;;;;;5012242;28;20034;-57
2020/12/31 05:18:56;;;;;;;7.50;3.92;;;2.00;99.90;;;;;;5011805;28;20049;-57
2020/12/31 05:21:22;;;;;;;8.38;3.63;;;2.00;99.90;;;;;;5012232;28;20113;-57
2020/12/31 05:23:48;;;;;;;6.75;3.47;;;1.90;99.90;;;;;;5012044;28;20045;-57
2020/12/31 05:26:31;;;;;;;8.15;3.90;;;1.90;99.90;;;;;;5011899;28;20030;-57
2020/12/31 05:28:57;;;;;;;7.05;3.42;;;1.90;99.90;;;;;;5011745;28;20037;-58
2020/12/31 05:31:24;;;;;;;7.40;3.92;;;1.80;99.90;;;;;;5011769;28;20026;-56
2020/12/31 05:33:50;;;;;;;5.95;3.10;;;1.80;99.90;;;;;;5011683;28;20018;-55
2020/12/31 05:36:26;;;;;;;6.70;3.28;;;1.80;99.90;;;;;;5014670;28;20076;-56
2020/12/31 05:39:00;;;;;;;6.13;3.15;;;1.80;99.90;;;;;;5015536;28;20030;-57
2020/12/31 05:41:31;;;;;;;8.80;3.85;;;1.80;99.90;;;;;;5015612;28;20046;-56
2020/12/31 05:44:06;;;;;;;6.35;2.72;;;1.80;99.90;;;;;;5015548;28;20034;-56
2020/12/31 05:46:35;;;;;;;4.53;2.90;;;1.90;99.90;;;;;;5015196;28;20038;-56
2020/12/31 05:49:10;;;;;;;5.38;2.55;;;1.90;99.90;;;;;;5015032;28;20141;-53
2020/12/31 05:51:38;;;;;;;6.97;2.97;;;1.90;99.90;;;;;;5030765;28;20061;-54
2020/12/31 05:54:15;;;;;;;7.88;3.15;;;1.90;99.90;;;;;;5015462;28;20057;-56
2020/12/31 05:56:44;;;;;;;5.15;2.40;;;2.00;99.90;;;;;;5015186;28;20030;-56
2020/12/31 05:59:24;;;;;;;6.07;3.17;;;1.90;99.90;;;;;;5015086;28;20034;-56
2020/12/31 06:02:02;;;;;;;6.30;2.92;;;1.90;99.90;;;;;;5014805;28;20068;-57
2020/12/31 06:04:31;;;;;;;7.00;3.35;;;1.90;99.90;;;;;;5014754;28;20030;-53
2020/12/31 06:07:05;;;;;;;4.57;2.42;;;1.90;99.90;;;;;;5015229;28;20038;-56
2020/12/31 06:09:35;;;;;;;6.35;3.65;;;1.80;99.90;;;;;;5015034;28;20105;-56
2020/12/31 06:12:08;;;;;;;5.07;3.13;;;1.90;99.90;;;;;;5014684;28;20057;-59
2020/12/31 06:14:36;;;;;;;5.78;3.03;;;1.90;99.90;;;;;;5013779;28;20032;-57
2020/12/31 06:17:06;;;;;;;6.75;3.10;;;2.00;99.90;;;;;;5014511;28;20034;-59
2020/12/31 06:19:36;;;;;;;6.78;3.38;;;2.00;99.90;;;;;;5014469;28;20124;-57
2020/12/31 06:22:05;;;;;;;6.53;3.33;;;2.10;99.90;;;;;;5014401;28;20026;-58
2020/12/31 06:24:43;;;;;;;6.40;3.25;;;2.00;99.90;;;;;;5014441;28;20053;-58
2020/12/31 06:27:19;;;;;;;7.93;3.63;;;2.00;99.90;;;;;;5014377;28;20029;-58
2020/12/31 06:29:50;;;;;;;5.10;3.20;;;2.10;99.90;;;;;;5014221;28;20030;-59
2020/12/31 06:32:27;;;;;;;7.07;3.55;;;2.10;99.90;;;;;;5014297;28;20036;-57
2020/12/31 06:35:06;;;;;;;7.57;3.58;;;2.10;99.90;;;;;;5014329;28;20034;-58
2020/12/31 06:37:33;;;;;;;7.63;3.92;;;2.00;99.90;;;;;;5014279;28;20030;-57
2020/12/31 06:40:24;;;;;;;7.57;4.03;;;2.00;99.90;;;;;;5013966;28;20045;-57
2020/12/31 06:43:06;;;;;;;9.27;3.88;;;2.10;99.90;;;;;;5013918;28;20054;-56
2020/12/31 06:45:46;;;;;;;5.28;3.35;;;2.10;99.90;;;;;;5014346;28;20065;-56
2020/12/31 06:48:27;;;;;;;8.02;3.63;;;2.20;99.90;;;;;;5013631;28;20044;-57
2020/12/31 06:51:10;;;;;;;6.30;3.75;;;2.20;99.90;;;;;;5014066;28;20105;-56
2020/12/31 06:53:48;;;;;;;9.25;4.57;;;2.20;99.90;;;;;;5014296;28;20057;-56
2020/12/31 06:56:15;;;;;;;7.50;4.00;;;2.30;99.90;;;;;;5013896;28;20034;-57
2020/12/31 06:58:43;;;;;;;10.02;4.18;;;2.30;99.90;;;;;;5014001;28;20022;-57
2020/12/31 07:01:27;;;;;;;7.70;4.28;;;2.30;99.90;;;;;;5013728;28;20038;-58
2020/12/31 07:03:56;;;;;;;8.25;3.83;;;2.40;99.90;;;;;;5013832;28;20026;-58
2020/12/31 07:06:32;;;;;;;8.40;3.75;;;2.40;99.90;;;;;;5013632;28;20034;-58
2020/12/31 07:09:24;;;;;;;7.95;3.50;;;2.50;99.90;;;;;;5013851;28;20117;-58
2020/12/31 07:11:58;;;;;;;11.15;4.40;;;2.50;99.90;;;;;;5013338;28;20022;-58
2020/12/31 07:14:28;;;;;;;6.93;3.60;;;2.60;99.90;;;;;;5013804;28;20026;-55
2020/12/31 07:16:54;;;;;;;7.75;3.88;;;2.50;99.90;;;;;;5013659;28;20022;-56
2020/12/31 07:19:38;;;;;;;8.32;3.90;;;2.50;99.90;;;;;;5013047;28;20116;-57
2020/12/31 07:22:10;;;;;;;7.10;4.03;;;2.50;99.90;;;;;;5013611;28;20033;-57
2020/12/31 07:24:56;;;;;;;8.32;4.13;;;2.60;99.90;;;;;;5013357;28;20129;-55
2020/12/31 07:27:31;;;;;;;7.13;3.72;;;2.60;99.90;;;;;;5013356;28;20034;-54
2020/12/31 07:30:07;;;;;;;8.80;3.65;;;2.70;99.90;;;;;;5013109;28;20113;-56
2020/12/31 07:33:05;;;;;;;6.63;3.53;;;2.70;99.90;;;;;;5013431;28;20030;-54
2020/12/31 07:35:41;;;;;;;5.30;2.97;;;2.70;99.90;;;;;;5011474;28;20122;-54
2020/12/31 07:38:12;;;;;;;8.07;3.95;;;2.60;99.90;;;;;;5011646;28;20038;-56
2020/12/31 07:40:39;;;;;;;7.65;3.45;;;2.70;99.90;;;;;;5013375;28;20045;-52
2020/12/31 07:43:11;;;;;;;7.20;3.65;;;2.70;99.90;;;;;;5012056;28;20058;-54
2020/12/31 07:45:38;;;;;;;6.80;3.33;;;2.60;99.90;;;;;;5013355;28;20038;-55
2020/12/31 07:48:04;;;;;;;8.23;3.70;;;2.80;99.90;;;;;;5013051;28;20030;-52
2020/12/31 07:50:30;;;;;;;7.22;3.65;;;2.80;99.90;;;;;;5013246;28;20034;-53
2020/12/31 07:52:59;;;;;;;8.48;4.20;;;2.70;99.90;;;;;;5013034;28;20109;-56
2020/12/31 07:55:25;;;;;;;8.65;3.72;;;2.70;99.90;;;;;;5012935;28;20038;-56
2020/12/31 07:57:51;;;;;;;8.23;4.40;;;2.60;99.90;;;;;;5012796;28;20033;-52
2020/12/31 08:00:20;;;;;;;7.80;3.92;;;2.60;99.90;;;;;;5012892;28;20034;-53
2020/12/31 08:02:52;;;;;;;9.48;3.85;;;2.60;99.90;;;;;;5012714;28;20038;-53
2020/12/31 08:05:20;;;;;;;7.93;3.88;;;2.60;99.90;;;;;;5011773;28;20037;-52
2020/12/31 08:07:54;;;;;;;7.57;3.40;;;2.60;99.90;;;;;;5012790;28;20026;-56
2020/12/31 08:10:21;;;;;;;8.00;4.38;;;2.70;99.90;;;;;;5006099;28;20034;-57
2020/12/31 08:13:00;;;;;;;7.60;4.13;;;2.70;99.90;;;;;;5012275;28;20026;-57
2020/12/31 08:15:27;;;;;;;7.32;3.80;;;2.80;99.90;;;;;;5012783;28;20026;-55
2020/12/31 08:17:58;;;;;;;6.07;2.90;;;2.80;99.90;;;;;;5012110;28;20037;-55
2020/12/31 08:20:32;;;;;;;5.93;3.17;;;2.90;99.90;;;;;;5012299;28;20049;-54
2020/12/31 08:23:02;;;;;;;6.28;2.83;;;2.90;99.90;;;;;;5011470;28;20034;-55
2020/12/31 08:25:40;;;;;;;9.98;3.63;;;2.90;99.90;;;;;;5011485;28;20036;-57
2020/12/31 08:28:07;;;;;;;6.45;3.60;;;3.10;99.90;;;;;;5011536;28;20061;-55
2020/12/31 08:30:37;;;;;;;7.80;3.67;;;3.10;99.90;;;;;;5012312;28;20034;-62
2020/12/31 08:33:07;;;;;;;8.85;3.38;;;3.20;99.90;;;;;;5011437;28;20095;-57
2020/12/31 08:35:42;;;;;;;7.80;3.42;;;3.10;99.90;;;;;;5012225;28;20034;-58
2020/12/31 08:38:17;;;;;;;6.90;3.28;;;3.00;99.90;;;;;;5011885;28;20030;-58
2020/12/31 08:40:53;;;;;;;5.95;3.30;;;3.20;99.90;;;;;;5011492;28;20030;-56
2020/12/31 08:43:35;;;;;;;6.70;3.15;;;3.20;99.90;;;;;;5012372;28;20048;-58
2020/12/31 08:46:23;;;;;;;5.95;3.33;;;3.20;99.90;;;;;;5012027;28;20083;-58
2020/12/31 08:48:56;;;;;;;6.47;2.97;;;3.20;99.90;;;;;;5011765;28;20042;-53
2020/12/31 08:51:28;;;;;;;6.40;3.30;;;3.10;99.90;;;;;;5011918;28;20033;-51
2020/12/31 08:53:59;;;;;;;10.52;3.72;;;3.10;99.90;;;;;;5010823;28;20072;-52
2020/12/31 08:56:33;;;;;;;6.57;3.00;;;3.20;99.90;;;;;;5011881;28;20042;-65
2020/12/31 08:59:06;;;;;;;6.88;3.30;;;3.30;99.90;;;;;;5011762;28;20072;-50
2020/12/31 09:01:33;;;;;;;8.48;3.47;;;3.30;99.90;;;;;;5012241;28;20037;-56
2020/12/31 09:04:19;;;;;;;9.27;3.67;;;3.40;99.90;;;;;;5012308;28;20022;-57
2020/12/31 09:06:57;;;;;;;6.10;3.20;;;3.30;99.90;;;;;;5012167;28;20030;-57
2020/12/31 09:09:28;;;;;;;7.63;3.67;;;3.30;99.90;;;;;;5009741;28;20026;-58
2020/12/31 09:12:04;;;;;;;9.77;3.50;;;3.20;99.90;;;;;;5015875;28;20033;-60
2020/12/31 09:14:32;;;;;;;9.35;4.15;;;3.20;99.90;;;;;;5014475;28;20049;-54
2020/12/31 09:17:00;;;;;;;7.38;3.67;;;3.20;99.90;;;;;;5015728;28;20049;-54
2020/12/31 09:19:27;;;;;;;9.10;4.50;;;3.20;99.90;;;;;;5024931;28;20084;-55
2020/12/31 09:21:52;;;;;;;6.70;3.38;;;3.20;99.90;;;;;;5015747;28;20109;-53
2020/12/31 09:24:21;;;;;;;6.40;2.65;;;3.10;99.90;;;;;;5013951;28;20153;-52
2020/12/31 09:26:55;;;;;;;6.75;3.63;;;3.00;99.90;;;;;;5015779;28;20057;-54
2020/12/31 09:29:23;;;;;;;6.38;3.25;;;2.90;99.90;;;;;;5014593;28;20067;-55
2020/12/31 09:31:49;;;;;;;7.80;3.63;;;2.80;99.90;;;;;;5015471;28;20030;-52
2020/12/31 09:34:15;;;;;;;8.52;3.50;;;2.80;99.90;;;;;;5015625;28;20121;-56
2020/12/31 09:36:42;;;;;;;8.27;4.03;;;2.80;99.90;;;;;;5014430;28;20033;-55
2020/12/31 09:39:08;;;;;;;12.05;3.75;;;2.60;99.90;;;;;;5015169;28;20030;-53
2020/12/31 09:41:34;;;;;;;6.57;3.70;;;2.60;99.90;;;;;;5015366;28;20037;-50
2020/12/31 09:44:01;;;;;;;6.55;3.25;;;2.70;99.90;;;;;;5015357;28;20129;-54
2020/12/31 09:46:27;;;;;;;8.70;4.15;;;2.50;99.90;;;;;;5013579;28;20072;-53
2020/12/31 09:48:54;;;;;;;5.72;3.30;;;2.40;99.90;;;;;;4998069;28;20073;-56
2020/12/31 09:51:20;;;;;;;9.85;3.70;;;2.40;99.90;;;;;;5015250;28;20040;-56
2020/12/31 09:53:49;;;;;;;8.70;4.03;;;2.30;99.90;;;;;;4999134;28;20088;-53
2020/12/31 09:56:15;;;;;;;8.15;3.72;;;2.20;99.90;;;;;;4995453;28;20031;-55
2020/12/31 09:58:42;;;;;;;6.53;3.92;;;2.10;99.90;;;;;;4995615;28;20054;-55
2020/12/31 10:01:08;;;;;;;10.25;4.20;;;2.00;99.90;;;;;;5013438;28;20041;-53
2020/12/31 10:03:35;;;;;;;10.07;4.32;;;2.00;99.90;;;;;;5015183;28;20084;-51
2020/12/31 10:06:01;;;;;;;8.55;3.75;;;1.90;99.90;;;;;;5010970;28;20030;-55
2020/12/31 10:08:28;;;;;;;8.30;4.03;;;1.90;99.90;;;;;;4995437;28;20037;-56
2020/12/31 10:10:54;;;;;;;7.03;3.95;;;1.90;99.90;;;;;;5000559;28;20058;-57
2020/12/31 10:13:20;;;;;;;13.05;4.25;;;1.90;99.90;;;;;;5013605;28;20041;-55
2020/12/31 10:15:46;;;;;;;6.45;3.72;;;1.90;99.90;;;;;;5014697;28;20038;-54
2020/12/31 10:18:12;;;;;;;7.43;4.13;;;1.90;99.90;;;;;;5014482;28;20030;-51
2020/12/31 10:20:39;;;;;;;7.28;3.95;;;1.90;99.90;;;;;;5014131;28;20264;-56
2020/12/31 10:23:05;;;;;;;7.72;3.95;;;1.80;99.90;;;;;;5012217;28;20026;-54
2020/12/31 10:25:31;;;;;;;8.57;4.75;;;1.90;99.90;;;;;;5014754;28;20038;-56
2020/12/31 10:27:57;;;;;;;7.97;4.40;;;1.90;99.90;;;;;;5014130;28;20048;-53
2020/12/31 10:30:23;;;;;;;9.30;4.32;;;2.00;99.90;;;;;;5014643;28;20053;-48
2020/12/31 10:32:49;;;;;;;9.27;4.28;;;2.00;99.90;;;;;;5013146;28;20075;-54
2020/12/31 10:35:15;;;;;;;10.75;4.50;;;2.20;99.90;;;;;;5014033;28;20037;-54
2020/12/31 10:37:41;;;;;;;13.10;6.97;;;2.30;99.90;;;;;;5014506;28;20048;-55
2020/12/31 10:40:07;;;;;;;10.55;4.93;;;2.30;99.90;;;;;;5013926;28;20053;-54
2020/12/31 10:42:33;;;;;;;9.73;4.20;;;2.20;99.90;;;;;;5029330;28;20052;-56
2020/12/31 10:44:59;;;;;;;11.07;5.07;;;2.20;99.90;;;;;;5014318;28;20074;-52
2020/12/31 10:47:25;;;;;;;9.77;5.45;;;2.20;99.90;;;;;;5013998;28;20068;-51
2020/12/31 10:49:51;;;;;;;12.18;5.15;;;2.10;99.90;;;;;;5013902;28;20041;-54
2020/12/31 10:52:17;;;;;;;10.20;5.38;;;2.20;99.90;;;;;;5013674;28;20052;-52
2020/12/31 10:54:43;;;;;;;8.98;4.35;;;2.20;99.90;;;;;;5014012;28;20113;-55
2020/12/31 10:57:10;;;;;;;10.57;4.97;;;2.10;99.90;;;;;;5013978;28;20029;-54
2020/12/31 10:59:36;;;;;;;9.75;4.90;;;2.10;99.90;;;;;;5014052;28;20050;-54
2020/12/31 11:02:02;;;;;;;11.55;5.15;;;2.10;99.90;;;;;;5013613;28;20122;-55
2020/12/31 11:04:28;;;;;;;11.00;5.15;;;2.10;99.90;;;;;;5013658;28;20116;-54
2020/12/31 11:06:54;;;;;;;12.73;5.43;;;2.00;99.90;;;;;;5013709;28;20033;-56
2020/12/31 11:09:19;;;;;;;9.93;4.95;;;2.10;99.90;;;;;;5000235;28;20026;-54
2020/12/31 11:11:45;;;;;;;9.73;4.68;;;2.10;99.90;;;;;;5006434;28;20034;-56
2020/12/31 11:14:11;;;;;;;10.35;4.97;;;2.00;99.90;;;;;;5010257;28;20030;-51
2020/12/31 11:16:37;;;;;;;10.43;5.15;;;2.00;99.90;;;;;;4994181;28;20085;-57
2020/12/31 11:19:05;;;;;;;10.93;4.95;;;1.90;99.90;;;;;;5005597;28;20045;-56
2020/12/31 11:21:31;;;;;;;8.73;5.07;;;2.00;99.90;;;;;;5000822;28;20038;-55
2020/12/31 11:23:57;;;;;;;15.88;5.88;;;2.00;99.90;;;;;;4993687;28;20027;-55
2020/12/31 11:26:25;;;;;;;12.73;6.38;;;2.10;99.90;;;;;;4993599;28;20048;-54
2020/12/31 11:28:51;;;;;;;12.20;6.43;;;2.10;99.90;;;;;;5001884;28;20026;-54
2020/12/31 11:31:43;;;;;;;9.07;5.40;;;2.10;99.90;;;;;;5013449;28;20034;-53
2020/12/31 11:34:09;;;;;;;12.25;5.70;;;2.20;99.90;;;;;;5012582;28;20124;-58
2020/12/31 11:36:35;;;;;;;13.05;6.00;;;2.20;99.90;;;;;;5013466;28;20245;-57
2020/12/31 11:39:01;;;;;;;9.43;5.15;;;2.20;99.90;;;;;;5012974;28;20053;-57
2020/12/31 11:41:28;;;;;;;11.80;5.80;;;2.20;99.90;;;;;;5012954;28;20103;-57
2020/12/31 11:43:54;;;;;;;10.23;4.43;;;2.30;99.90;;;;;;5013350;28;20034;-56
2020/12/31 11:46:20;;;;;;;10.15;4.78;;;2.30;99.90;;;;;;5013108;28;20080;-56
2020/12/31 11:48:46;;;;;;;9.23;4.93;;;2.30;99.90;;;;;;5013211;28;20034;-56
2020/12/31 11:51:12;;;;;;;8.80;4.20;;;2.40;99.90;;;;;;5013046;28;20116;-56
2020/12/31 11:53:41;;;;;;;9.77;4.63;;;2.40;99.90;;;;;;5012991;28;20073;-53
2020/12/31 11:56:07;;;;;;;9.45;4.93;;;2.50;99.90;;;;;;5012737;28;20118;-54
2020/12/31 11:58:34;;;;;;;10.95;5.10;;;2.50;99.90;;;;;;5012704;28;20034;-57
2020/12/31 12:01:00;;;;;;;9.45;4.80;;;2.70;99.90;;;;;;5012670;28;20120;-57
2020/12/31 12:03:28;;;;;;;10.10;5.20;;;2.60;99.90;;;;;;5011548;28;20034;-58
2020/12/31 12:05:55;;;;;;;11.57;5.15;;;2.70;99.90;;;;;;5012654;28;20116;-56
2020/12/31 12:08:28;;;;;;;10.98;5.60;;;2.80;99.90;;;;;;5010353;28;20072;-55
2020/12/31 12:10:56;;;;;;;11.75;5.85;;;2.80;99.90;;;;;;5011626;28;20033;-56
2020/12/31 12:13:23;;;;;;;12.80;6.28;;;2.70;99.90;;;;;;5012701;28;20033;-57
2020/12/31 12:15:49;;;;;;;10.80;6.07;;;2.70;99.90;;;;;;5012766;28;20030;-58
2020/12/31 12:18:15;;;;;;;11.35;6.03;;;2.70;99.90;;;;;;5011142;28;20033;-56
2020/12/31 12:20:41;;;;;;;12.30;6.18;;;2.70;99.90;;;;;;5012180;28;20046;-55
2020/12/31 12:23:07;;;;;;;14.68;5.50;;;2.70;99.90;;;;;;5012510;28;20099;-57
2020/12/31 12:25:33;;;;;;;12.80;5.57;;;2.70;99.90;;;;;;5011445;28;20044;-55
2020/12/31 12:27:59;;;;;;;10.95;5.45;;;2.70;99.90;;;;;;5012089;28;20034;-55
2020/12/31 12:30:25;;;;;;;10.77;5.70;;;2.70;99.90;;;;;;5011489;28;20083;-61
2020/12/31 12:32:51;;;;;;;11.48;5.07;;;2.70;99.90;;;;;;5030784;28;20037;-64
2020/12/31 12:35:17;;;;;;;9.93;5.03;;;2.80;99.90;;;;;;5031338;28;20030;-54
2020/12/31 12:37:43;;;;;;;11.07;6.00;;;3.00;99.90;;;;;;5029765;28;20027;-56
2020/12/31 12:40:09;;;;;;;10.48;5.53;;;3.00;99.90;;;;;;5031720;28;20086;-54
2020/12/31 12:42:35;;;;;;;10.55;4.72;;;3.00;99.90;;;;;;5012389;28;20070;-55
2020/12/31 12:45:04;;;;;;;10.77;4.95;;;3.00;99.90;;;;;;5011767;28;20034;-56
2020/12/31 12:47:37;;;;;;;9.05;5.30;;;2.90;99.90;;;;;;5012334;28;20026;-57
2020/12/31 12:50:07;;;;;;;10.45;4.90;;;2.90;99.90;;;;;;5012649;28;20156;-58
2020/12/31 12:52:33;;;;;;;9.65;5.03;;;2.90;99.90;;;;;;5012612;28;20064;-58
2020/12/31 12:54:59;;;;;;;11.27;4.90;;;2.90;99.90;;;;;;5012307;28;20037;-58
2020/12/31 12:57:28;;;;;;;11.00;5.38;;;2.90;99.90;;;;;;5011897;28;20030;-59
2020/12/31 12:59:54;;;;;;;10.80;4.63;;;2.90;99.90;;;;;;5012120;28;20038;-58
2020/12/31 13:02:19;;;;;;;10.27;5.68;;;2.80;99.90;;;;;;5012089;28;20049;-57